createdAt,value
2017-08-22T00:00:16.291Z,5.3
2017-08-22T00:01:18.812Z,5.4
2017-08-22T00:02:21.695Z,5.4
2017-08-22T00:03:24.363Z,5.4
2017-08-22T00:04:26.872Z,5.4
2017-08-22T00:05:29.731Z,5.4
2017-08-22T00:06:32.591Z,5.4
2017-08-22T00:07:35.777Z,5.4
2017-08-22T00:08:39.288Z,5.4
2017-08-22T00:09:42.147Z,5.4
2017-08-22T00:10:44.932Z,5.4
2017-08-22T00:11:47.449Z,5.4
2017-08-22T00:12:50.347Z,5.4
2017-08-22T00:13:52.855Z,5.4
2017-08-22T00:14:55.355Z,5.3
2017-08-22T00:15:58.543Z,5.4
2017-08-22T00:17:01.184Z,5.4
2017-08-22T00:18:03.692Z,5.4
2017-08-22T00:19:06.552Z,5.4
2017-08-22T00:20:09.081Z,5.4
2017-08-22T00:21:11.602Z,5.3
2017-08-22T00:22:15.125Z,5.3
2017-08-22T00:23:17.626Z,5.3
2017-08-22T00:24:20.150Z,5.3
2017-08-22T00:25:22.660Z,5.4
2017-08-22T00:26:25.614Z,5.3
2017-08-22T00:27:28.130Z,5.4
2017-08-22T00:28:30.968Z,5.3
2017-08-22T00:29:34.180Z,5.3
2017-08-22T00:30:37.107Z,5.4
2017-08-22T00:31:39.627Z,5.4
2017-08-22T00:32:42.480Z,5.3
2017-08-22T00:33:44.996Z,5.3
2017-08-22T00:34:47.483Z,5.4
2017-08-22T00:35:50.195Z,5.3
2017-08-22T00:36:53.388Z,5.3
2017-08-22T00:37:55.899Z,5.3
2017-08-22T00:38:58.406Z,5.3
2017-08-22T00:40:01.172Z,5.3
2017-08-22T00:41:04.018Z,5.3
2017-08-22T00:42:06.561Z,5.3
2017-08-22T00:43:09.411Z,5.4
2017-08-22T00:44:12.597Z,5.3
2017-08-22T00:45:15.786Z,5.3
2017-08-22T00:46:18.655Z,5.3
2017-08-22T00:47:21.870Z,5.3
2017-08-22T00:48:24.712Z,5.3
2017-08-22T00:49:27.910Z,5.3
2017-08-22T00:50:30.764Z,5.3
2017-08-22T00:51:33.270Z,5.4
2017-08-22T00:52:36.130Z,5.3
2017-08-22T00:53:38.651Z,5.3
2017-08-22T00:54:41.174Z,5.3
2017-08-22T00:55:43.675Z,5.3
2017-08-22T00:56:46.213Z,5.3
2017-08-22T00:57:48.757Z,5.3
2017-08-22T00:58:51.275Z,5.3
2017-08-22T00:59:54.123Z,5.3
2017-08-22T01:00:57.004Z,5.3
2017-08-22T01:01:59.670Z,5.3
2017-08-22T01:03:02.179Z,5.3
2017-08-22T01:04:05.037Z,5.3
2017-08-22T01:05:07.545Z,5.3
2017-08-22T01:06:10.050Z,5.3
2017-08-22T01:07:12.571Z,5.3
2017-08-22T01:08:15.421Z,5.3
2017-08-22T01:09:18.326Z,5.3
2017-08-22T01:10:21.048Z,5.3
2017-08-22T01:11:23.836Z,5.3
2017-08-22T01:12:26.391Z,5.3
2017-08-22T01:13:29.494Z,5.3
2017-08-22T01:14:32.001Z,5.3
2017-08-22T01:15:35.202Z,5.3
2017-08-22T01:16:38.061Z,5.3
2017-08-22T01:17:40.565Z,5.3
2017-08-22T01:18:43.412Z,5.3
2017-08-22T01:19:46.275Z,5.3
2017-08-22T01:20:49.457Z,5.3
2017-08-22T01:21:51.963Z,5.3
2017-08-22T01:22:54.487Z,5.3
2017-08-22T01:23:57.328Z,5.3
2017-08-22T01:25:00.636Z,5.3
2017-08-22T01:26:03.510Z,5.3
2017-08-22T01:27:06.011Z,5.3
2017-08-22T01:28:08.522Z,5.3
2017-08-22T01:29:11.041Z,5.3
2017-08-22T01:30:13.925Z,5.3
2017-08-22T01:31:16.775Z,5.3
2017-08-22T01:32:19.276Z,5.2
2017-08-22T01:33:22.143Z,5.2
2017-08-22T01:34:24.633Z,5.2
2017-08-22T01:35:27.151Z,5.3
2017-08-22T01:36:29.670Z,5.3
2017-08-22T01:37:32.175Z,5.3
2017-08-22T01:38:34.697Z,5.3
2017-08-22T01:39:37.550Z,5.2
2017-08-22T01:40:40.386Z,5.3
2017-08-22T01:41:43.267Z,5.2
2017-08-22T01:42:45.759Z,5.3
2017-08-22T01:43:48.616Z,5.3
2017-08-22T01:44:51.482Z,5.3
2017-08-22T01:45:54.647Z,5.3
2017-08-22T01:46:57.832Z,5.2
2017-08-22T01:48:00.680Z,5.3
2017-08-22T01:49:03.922Z,5.3
2017-08-22T01:50:06.838Z,5.3
2017-08-22T01:51:09.705Z,5.3
2017-08-22T01:52:12.191Z,5.3
2017-08-22T01:53:15.079Z,5.2
2017-08-22T01:54:17.586Z,5.2
2017-08-22T01:55:20.089Z,5.2
2017-08-22T01:56:23.274Z,5.3
2017-08-22T01:57:26.115Z,5.3
2017-08-22T01:58:28.948Z,5.3
2017-08-22T01:59:32.147Z,5.4
2017-08-22T02:00:35.666Z,5.3
2017-08-22T02:01:38.510Z,5.3
2017-08-22T02:02:41.017Z,5.2
2017-08-22T02:03:43.871Z,5.2
2017-08-22T02:04:46.368Z,5.3
2017-08-22T02:05:49.220Z,5.2
2017-08-22T02:06:51.718Z,5.3
2017-08-22T02:07:54.261Z,5.3
2017-08-22T02:08:57.105Z,5.2
2017-08-22T02:09:59.619Z,5.3
2017-08-22T02:11:02.466Z,5.3
2017-08-22T02:12:04.997Z,5.3
2017-08-22T02:13:07.534Z,5.3
2017-08-22T02:14:10.381Z,5.2
2017-08-22T02:15:13.890Z,5.2
2017-08-22T02:16:17.090Z,5.2
2017-08-22T02:17:19.974Z,5.2
2017-08-22T02:18:23.487Z,5.2
2017-08-22T02:19:26.327Z,5.3
2017-08-22T02:20:28.830Z,5.2
2017-08-22T02:21:31.678Z,5.3
2017-08-22T02:22:34.179Z,5.2
2017-08-22T02:23:36.716Z,5.3
2017-08-22T02:24:39.547Z,5.2
2017-08-22T02:25:42.735Z,5.2
2017-08-22T02:26:45.614Z,5.2
2017-08-22T02:27:48.133Z,5.2
2017-08-22T02:28:50.982Z,5.2
2017-08-22T02:29:53.497Z,5.2
2017-08-22T02:30:56.008Z,5.2
2017-08-22T02:31:58.513Z,5.2
2017-08-22T02:33:02.773Z,5.2
2017-08-22T02:34:05.277Z,5.2
2017-08-22T02:35:08.815Z,5.2
2017-08-22T02:36:11.686Z,5.2
2017-08-22T02:37:14.537Z,5.2
2017-08-22T02:38:17.042Z,5.2
2017-08-22T02:39:19.565Z,5.2
2017-08-22T02:40:22.067Z,5.2
2017-08-22T02:41:24.926Z,5.3
2017-08-22T02:42:27.797Z,5.3
2017-08-22T02:43:31.003Z,5.3
2017-08-22T02:44:33.858Z,5.3
2017-08-22T02:45:36.719Z,5.3
2017-08-22T02:46:39.234Z,5.2
2017-08-22T02:47:41.743Z,5.2
2017-08-22T02:48:44.262Z,5.3
2017-08-22T02:49:47.129Z,5.2
2017-08-22T02:50:50.675Z,5.2
2017-08-22T02:51:53.536Z,5.3
2017-08-22T02:52:56.724Z,5.3
2017-08-22T02:53:59.230Z,5.2
2017-08-22T02:55:02.437Z,5.3
2017-08-22T02:56:05.288Z,5.2
2017-08-22T02:57:07.797Z,5.2
2017-08-22T02:58:11.010Z,5.2
2017-08-22T02:59:13.850Z,5.2
2017-08-22T03:00:16.378Z,5.2
2017-08-22T03:01:19.556Z,5.2
2017-08-22T03:02:22.395Z,5.2
2017-08-22T03:03:25.247Z,5.2
2017-08-22T03:04:28.104Z,5.2
2017-08-22T03:05:30.638Z,5.2
2017-08-22T03:06:33.122Z,5.2
2017-08-22T03:07:35.639Z,5.2
2017-08-22T03:08:38.478Z,5.2
2017-08-22T03:09:41.684Z,5.2
2017-08-22T03:10:44.534Z,5.2
2017-08-22T03:11:47.389Z,5.2
2017-08-22T03:12:49.884Z,5.2
2017-08-22T03:13:52.394Z,5.2
2017-08-22T03:14:54.896Z,5.2
2017-08-22T03:15:57.757Z,5.2
2017-08-22T03:17:00.614Z,5.2
2017-08-22T03:18:03.475Z,5.2
2017-08-22T03:19:05.991Z,5.2
2017-08-22T03:20:08.501Z,5.2
2017-08-22T03:21:11.000Z,5.2
2017-08-22T03:22:13.521Z,5.2
2017-08-22T03:23:16.037Z,5.2
2017-08-22T03:24:18.551Z,5.2
2017-08-22T03:25:21.404Z,5.2
2017-08-22T03:26:24.261Z,5.2
2017-08-22T03:27:27.460Z,5.2
2017-08-22T03:28:30.311Z,5.2
2017-08-22T03:29:33.513Z,5.2
2017-08-22T03:30:36.731Z,5.1
2017-08-22T03:31:40.271Z,5.2
2017-08-22T03:32:43.464Z,5.1
2017-08-22T03:33:45.970Z,5.2
2017-08-22T03:34:48.810Z,5.3
2017-08-22T03:35:51.658Z,5.2
2017-08-22T03:36:54.502Z,5.1
2017-08-22T03:37:57.331Z,5.2
2017-08-22T03:38:59.845Z,5.2
2017-08-22T03:40:02.700Z,5.2
2017-08-22T03:41:06.218Z,5.2
2017-08-22T03:42:09.063Z,5.2
2017-08-22T03:43:12.588Z,5.1
2017-08-22T03:44:15.763Z,5.2
2017-08-22T03:45:18.615Z,5.2
2017-08-22T03:46:21.464Z,5.1
2017-08-22T03:47:24.651Z,5.2
2017-08-22T03:48:27.176Z,5.2
2017-08-22T03:49:29.695Z,5.2
2017-08-22T03:50:32.197Z,5.2
2017-08-22T03:51:35.391Z,5.2
2017-08-22T03:52:38.233Z,5.2
2017-08-22T03:53:41.073Z,5.2
2017-08-22T03:54:44.253Z,5.2
2017-08-22T03:55:46.746Z,5.2
2017-08-22T03:56:49.245Z,5.2
2017-08-22T03:57:51.779Z,5.1
2017-08-22T03:58:54.602Z,5.2
2017-08-22T03:59:57.789Z,5.2
2017-08-22T04:01:00.322Z,5.2
2017-08-22T04:02:03.524Z,5.2
2017-08-22T04:03:07.386Z,5.2
2017-08-22T04:04:10.563Z,5.2
2017-08-22T04:05:13.426Z,5.3
2017-08-22T04:06:15.945Z,5.3
2017-08-22T04:07:18.779Z,5.2
2017-08-22T04:08:21.620Z,5.2
2017-08-22T04:09:24.126Z,5.3
2017-08-22T04:10:26.996Z,5.2
2017-08-22T04:11:29.502Z,5.2
2017-08-22T04:12:33.038Z,5.2
2017-08-22T04:13:35.871Z,5.2
2017-08-22T04:14:38.404Z,5.2
2017-08-22T04:15:41.582Z,5.2
2017-08-22T04:16:44.093Z,5.2
2017-08-22T04:17:46.607Z,5.2
2017-08-22T04:18:49.481Z,5.1
2017-08-22T04:19:52.672Z,5.2
2017-08-22T04:20:55.186Z,5.2
2017-08-22T04:21:57.677Z,5.2
2017-08-22T04:23:00.538Z,5.2
2017-08-22T04:24:03.389Z,5.1
2017-08-22T04:25:06.219Z,5.2
2017-08-22T04:26:08.723Z,5.2
2017-08-22T04:27:11.261Z,5.2
2017-08-22T04:28:13.780Z,5.1
2017-08-22T04:29:16.281Z,5.1
2017-08-22T04:30:19.126Z,5.2
2017-08-22T04:31:22.314Z,5.2
2017-08-22T04:32:25.195Z,5.2
2017-08-22T04:33:28.746Z,5.2
2017-08-22T04:34:31.595Z,5.1
2017-08-22T04:35:34.443Z,5.2
2017-08-22T04:36:37.279Z,5.2
2017-08-22T04:37:39.790Z,5.2
2017-08-22T04:38:42.289Z,5.2
2017-08-22T04:39:44.805Z,5.2
2017-08-22T04:40:47.309Z,5.2
2017-08-22T04:41:49.822Z,5.1
2017-08-22T04:42:52.325Z,5.2
2017-08-22T04:43:55.168Z,5.2
2017-08-22T04:44:58.030Z,5.2
2017-08-22T04:46:01.278Z,5.2
2017-08-22T04:47:04.457Z,5.2
2017-08-22T04:48:06.962Z,5.2
2017-08-22T04:49:09.799Z,5.2
2017-08-22T04:50:13.314Z,5.2
2017-08-22T04:51:16.158Z,5.2
2017-08-22T04:52:19.029Z,5.2
2017-08-22T04:53:21.523Z,5.2
2017-08-22T04:54:24.042Z,5.1
2017-08-22T04:55:26.579Z,5.2
2017-08-22T04:56:29.104Z,5.2
2017-08-22T04:57:32.278Z,5.2
2017-08-22T04:58:34.783Z,5.2
2017-08-22T04:59:37.633Z,5.2
2017-08-22T05:00:40.470Z,5.2
2017-08-22T05:01:43.985Z,5.2
2017-08-22T05:02:46.838Z,5.2
2017-08-22T05:03:49.351Z,5.3
2017-08-22T05:04:51.857Z,5.2
2017-08-22T05:05:55.051Z,5.2
2017-08-22T05:06:57.538Z,5.2
2017-08-22T05:08:00.395Z,5.2
2017-08-22T05:09:02.907Z,5.2
2017-08-22T05:10:05.416Z,5.2
2017-08-22T05:11:07.919Z,5.3
2017-08-22T05:12:11.117Z,5.2
2017-08-22T05:13:13.954Z,5.3
2017-08-22T05:14:16.465Z,5.2
2017-08-22T05:15:18.966Z,5.3
2017-08-22T05:16:21.810Z,5.2
2017-08-22T05:17:24.665Z,5.3
2017-08-22T05:18:27.514Z,5.3
2017-08-22T05:19:30.350Z,5.2
2017-08-22T05:20:33.210Z,5.3
2017-08-22T05:21:36.028Z,5.3
2017-08-22T05:22:38.867Z,5.3
2017-08-22T05:23:41.731Z,5.3
2017-08-22T05:24:44.235Z,5.2
2017-08-22T05:25:47.066Z,5.3
2017-08-22T05:26:49.594Z,5.3
2017-08-22T05:27:52.096Z,5.3
2017-08-22T05:28:54.600Z,5.3
2017-08-22T05:29:57.438Z,5.2
2017-08-22T05:31:00.663Z,5.3
2017-08-22T05:32:03.170Z,5.4
2017-08-22T05:33:06.019Z,5.3
2017-08-22T05:34:08.861Z,5.4
2017-08-22T05:35:12.065Z,5.3
2017-08-22T05:36:14.609Z,5.3
2017-08-22T05:37:17.820Z,5.3
2017-08-22T05:38:20.303Z,5.3
2017-08-22T05:39:23.151Z,5.3
2017-08-22T05:40:25.672Z,5.3
2017-08-22T05:41:28.186Z,5.4
2017-08-22T05:42:30.703Z,5.3
2017-08-22T05:43:33.882Z,5.4
2017-08-22T05:44:37.483Z,5.4
2017-08-22T05:45:40.342Z,5.4
2017-08-22T05:46:42.856Z,5.4
2017-08-22T05:47:45.357Z,5.3
2017-08-22T05:48:48.556Z,5.4
2017-08-22T05:49:51.408Z,5.4
2017-08-22T05:50:54.604Z,5.4
2017-08-22T05:51:57.813Z,5.4
2017-08-22T05:53:00.314Z,5.4
2017-08-22T05:54:03.183Z,5.4
2017-08-22T05:55:06.126Z,5.4
2017-08-22T05:56:08.973Z,5.4
2017-08-22T05:57:11.816Z,5.4
2017-08-22T05:58:14.334Z,5.4
2017-08-22T05:59:17.182Z,5.4
2017-08-22T06:00:20.368Z,5.3
2017-08-22T06:01:23.206Z,5.4
2017-08-22T06:02:26.061Z,5.4
2017-08-22T06:03:28.566Z,5.4
2017-08-22T06:04:31.109Z,5.4
2017-08-22T06:05:33.610Z,5.4
2017-08-22T06:06:36.128Z,5.4
2017-08-22T06:07:38.974Z,5.4
2017-08-22T06:08:41.819Z,5.4
2017-08-22T06:09:44.326Z,5.5
2017-08-22T06:10:47.168Z,5.5
2017-08-22T06:11:50.394Z,5.4
2017-08-22T06:12:52.912Z,5.4
2017-08-22T06:13:55.756Z,5.5
2017-08-22T06:14:58.270Z,5.4
2017-08-22T06:16:01.786Z,5.5
2017-08-22T06:17:04.300Z,5.5
2017-08-22T06:18:06.803Z,5.5
2017-08-22T06:19:09.682Z,5.5
2017-08-22T06:20:12.186Z,5.5
2017-08-22T06:21:14.701Z,5.5
2017-08-22T06:22:18.252Z,5.5
2017-08-22T06:23:21.448Z,5.5
2017-08-22T06:24:23.960Z,5.5
2017-08-22T06:25:27.027Z,5.5
2017-08-22T06:26:29.528Z,5.5
2017-08-22T06:27:32.707Z,5.5
2017-08-22T06:28:35.231Z,5.5
2017-08-22T06:29:38.088Z,5.5
2017-08-22T06:30:40.596Z,5.5
2017-08-22T06:31:43.436Z,5.5
2017-08-22T06:32:46.669Z,5.5
2017-08-22T06:33:49.531Z,5.5
2017-08-22T06:34:52.736Z,5.5
2017-08-22T06:35:55.219Z,5.5
2017-08-22T06:36:57.753Z,5.5
2017-08-22T06:38:00.270Z,5.6
2017-08-22T06:39:02.774Z,5.6
2017-08-22T06:40:05.615Z,5.5
2017-08-22T06:41:08.458Z,5.5
2017-08-22T06:42:55.731Z,5.6
2017-08-22T06:43:58.173Z,5.6
2017-08-22T06:45:00.585Z,5.6
2017-08-22T06:46:04.008Z,5.5
2017-08-22T06:47:06.427Z,5.6
2017-08-22T06:48:09.174Z,5.6
2017-08-22T06:49:11.935Z,5.6
2017-08-22T06:50:14.700Z,5.6
2017-08-22T06:51:17.105Z,5.6
2017-08-22T06:52:19.527Z,5.6
2017-08-22T06:53:21.947Z,5.6
2017-08-22T06:54:24.351Z,5.6
2017-08-22T06:55:27.135Z,5.6
2017-08-22T06:56:30.582Z,5.6
2017-08-22T06:57:33.673Z,5.7
2017-08-22T06:58:36.079Z,5.7
2017-08-22T06:59:38.504Z,5.6
2017-08-22T07:00:40.920Z,5.6
2017-08-22T07:01:43.330Z,5.7
2017-08-22T07:02:45.769Z,5.6
2017-08-22T07:03:48.200Z,5.7
2017-08-22T07:04:50.954Z,5.7
2017-08-22T07:05:53.371Z,5.7
2017-08-22T07:06:55.791Z,5.7
2017-08-22T07:07:58.222Z,5.7
2017-08-22T07:09:01.021Z,5.7
2017-08-22T07:10:04.146Z,5.7
2017-08-22T07:11:06.582Z,5.8
2017-08-22T07:12:09.339Z,5.7
2017-08-22T07:13:12.111Z,5.8
2017-08-22T07:14:14.865Z,5.8
2017-08-22T07:15:17.319Z,5.8
2017-08-22T07:16:19.784Z,5.8
2017-08-22T07:17:22.557Z,5.8
2017-08-22T07:18:25.321Z,5.8
2017-08-22T07:19:27.746Z,5.8
2017-08-22T07:20:30.505Z,5.8
2017-08-22T07:21:32.936Z,5.8
2017-08-22T07:22:35.382Z,5.8
2017-08-22T07:23:37.815Z,5.8
2017-08-22T07:24:40.252Z,5.8
2017-08-22T07:25:42.715Z,5.8
2017-08-22T07:26:45.813Z,5.8
2017-08-22T07:27:48.241Z,5.8
2017-08-22T07:28:51.009Z,5.8
2017-08-22T07:29:53.445Z,5.8
2017-08-22T07:30:56.218Z,5.8
2017-08-22T07:31:58.643Z,5.9
2017-08-22T07:33:01.401Z,5.8
2017-08-22T07:34:04.183Z,5.8
2017-08-22T07:35:06.647Z,5.8
2017-08-22T07:36:09.388Z,5.8
2017-08-22T07:37:11.830Z,5.9
2017-08-22T07:38:14.286Z,5.9
2017-08-22T07:39:17.046Z,5.9
2017-08-22T07:40:20.162Z,5.9
2017-08-22T07:41:22.912Z,5.9
2017-08-22T07:42:25.360Z,5.8
2017-08-22T07:43:27.799Z,5.8
2017-08-22T07:44:30.218Z,5.9
2017-08-22T07:45:33.654Z,5.9
2017-08-22T07:46:36.090Z,5.9
2017-08-22T07:47:38.517Z,5.8
2017-08-22T07:48:40.948Z,5.9
2017-08-22T07:49:43.719Z,5.9
2017-08-22T07:50:46.143Z,5.8
2017-08-22T07:51:48.563Z,5.9
2017-08-22T07:52:51.355Z,5.9
2017-08-22T07:53:54.141Z,5.9
2017-08-22T07:54:56.591Z,5.9
2017-08-22T07:55:59.015Z,5.9
2017-08-22T07:57:02.108Z,5.9
2017-08-22T07:58:04.874Z,5.9
2017-08-22T07:59:07.632Z,5.9
2017-08-22T08:00:10.783Z,5.9
2017-08-22T08:01:13.218Z,5.9
2017-08-22T08:02:15.639Z,5.9
2017-08-22T08:03:18.422Z,5.9
2017-08-22T08:04:20.870Z,5.9
2017-08-22T08:05:23.334Z,6
2017-08-22T08:06:26.111Z,5.9
2017-08-22T08:07:28.519Z,5.9
2017-08-22T08:08:31.955Z,5.9
2017-08-22T08:09:34.406Z,5.9
2017-08-22T08:10:36.856Z,5.9
2017-08-22T08:11:39.625Z,5.9
2017-08-22T08:12:42.448Z,5.9
2017-08-22T08:13:45.214Z,5.9
2017-08-22T08:14:47.635Z,6
2017-08-22T08:15:50.410Z,5.9
2017-08-22T08:16:52.824Z,5.9
2017-08-22T08:17:55.250Z,6
2017-08-22T08:18:57.682Z,5.9
2017-08-22T08:20:00.162Z,6
2017-08-22T08:21:02.648Z,5.9
2017-08-22T08:22:05.776Z,6
2017-08-22T08:23:08.876Z,6
2017-08-22T08:24:11.357Z,5.9
2017-08-22T08:25:13.770Z,6
2017-08-22T08:26:16.210Z,6
2017-08-22T08:27:18.992Z,6
2017-08-22T08:28:21.440Z,6
2017-08-22T08:29:23.866Z,6.1
2017-08-22T08:30:26.276Z,6
2017-08-22T08:31:28.715Z,6
2017-08-22T08:32:31.482Z,6
2017-08-22T08:33:34.250Z,6
2017-08-22T08:34:36.680Z,6
2017-08-22T08:35:39.120Z,6
2017-08-22T08:36:41.544Z,6
2017-08-22T08:37:43.984Z,6
2017-08-22T08:38:47.135Z,6
2017-08-22T08:39:49.617Z,6.1
2017-08-22T08:40:52.430Z,6
2017-08-22T08:41:54.883Z,6.1
2017-08-22T08:42:57.667Z,6.1
2017-08-22T08:44:01.230Z,6.1
2017-08-22T08:45:04.080Z,6.1
2017-08-22T08:46:06.871Z,6.1
2017-08-22T08:47:09.632Z,6.1
2017-08-22T08:48:12.731Z,6.2
2017-08-22T08:49:15.884Z,6.2
2017-08-22T08:50:18.307Z,6.1
2017-08-22T08:51:20.740Z,6.2
2017-08-22T08:52:23.165Z,6.2
2017-08-22T08:53:25.937Z,6.2
2017-08-22T08:54:28.691Z,6.2
2017-08-22T08:55:31.167Z,6.2
2017-08-22T08:56:33.676Z,6.2
2017-08-22T08:57:36.094Z,6.2
2017-08-22T08:58:38.522Z,6.2
2017-08-22T08:59:40.956Z,6.2
2017-08-22T09:00:43.737Z,6.2
2017-08-22T09:01:46.537Z,6.3
2017-08-22T09:02:48.970Z,6.3
2017-08-22T09:03:51.384Z,6.3
2017-08-22T09:04:54.834Z,6.3
2017-08-22T09:05:57.605Z,6.3
2017-08-22T09:07:00.018Z,6.3
2017-08-22T09:08:03.172Z,6.3
2017-08-22T09:09:06.279Z,6.3
2017-08-22T09:10:08.802Z,6.3
2017-08-22T09:11:11.561Z,6.3
2017-08-22T09:12:14.333Z,6.3
2017-08-22T09:13:17.091Z,6.3
2017-08-22T09:14:19.969Z,6.4
2017-08-22T09:15:22.416Z,6.4
2017-08-22T09:16:25.168Z,6.4
2017-08-22T09:17:27.938Z,6.4
2017-08-22T09:18:30.372Z,6.4
2017-08-22T09:19:33.488Z,6.4
2017-08-22T09:20:36.266Z,6.4
2017-08-22T09:21:39.035Z,6.4
2017-08-22T09:22:41.462Z,6.4
2017-08-22T09:23:43.897Z,6.5
2017-08-22T09:24:46.324Z,6.5
2017-08-22T09:25:48.745Z,6.4
2017-08-22T09:26:51.172Z,6.5
2017-08-22T09:27:53.598Z,6.5
2017-08-22T09:28:56.020Z,6.5
2017-08-22T09:29:58.797Z,6.4
2017-08-22T09:31:01.231Z,6.5
2017-08-22T09:32:04.363Z,6.5
2017-08-22T09:33:07.186Z,6.5
2017-08-22T09:34:09.613Z,6.5
2017-08-22T09:35:12.053Z,6.5
2017-08-22T09:36:14.838Z,6.5
2017-08-22T09:37:17.287Z,6.5
2017-08-22T09:38:20.080Z,6.5
2017-08-22T09:39:22.554Z,6.5
2017-08-22T09:40:25.558Z,6.5
2017-08-22T09:41:28.026Z,6.5
2017-08-22T09:42:30.630Z,6.5
2017-08-22T09:43:33.403Z,6.5
2017-08-22T09:44:36.166Z,6.5
2017-08-22T09:45:38.938Z,6.4
2017-08-22T09:46:41.710Z,6.4
2017-08-22T09:47:44.141Z,6.4
2017-08-22T09:48:46.919Z,6.4
2017-08-22T09:49:49.678Z,6.4
2017-08-22T09:50:52.112Z,6.4
2017-08-22T09:51:54.538Z,6.4
2017-08-22T09:52:57.326Z,6.4
2017-08-22T09:54:00.135Z,6.4
2017-08-22T09:55:02.917Z,6.4
2017-08-22T09:56:05.671Z,6.5
2017-08-22T09:57:08.113Z,6.4
2017-08-22T09:58:10.560Z,6.4
2017-08-22T09:59:13.336Z,6.5
2017-08-22T10:00:16.116Z,6.5
2017-08-22T10:01:19.631Z,6.5
2017-08-22T10:02:22.054Z,6.5
2017-08-22T10:03:24.498Z,6.5
2017-08-22T10:04:27.270Z,6.5
2017-08-22T10:05:30.042Z,6.5
2017-08-22T10:06:32.812Z,6.5
2017-08-22T10:07:35.581Z,6.6
2017-08-22T10:08:38.347Z,6.6
2017-08-22T10:09:40.787Z,6.5
2017-08-22T10:10:43.229Z,6.6
2017-08-22T10:11:45.994Z,6.5
2017-08-22T10:12:48.427Z,6.5
2017-08-22T10:13:51.202Z,6.6
2017-08-22T10:14:53.968Z,6.6
2017-08-22T10:15:56.404Z,6.6
2017-08-22T10:16:59.170Z,6.5
2017-08-22T10:18:01.595Z,6.5
2017-08-22T10:19:04.706Z,6.4
2017-08-22T10:20:07.946Z,6.5
2017-08-22T10:21:11.042Z,6.5
2017-08-22T10:22:13.829Z,6.5
2017-08-22T10:23:16.581Z,6.5
2017-08-22T10:24:19.350Z,6.5
2017-08-22T10:25:22.129Z,6.5
2017-08-22T10:26:24.909Z,6.6
2017-08-22T10:27:27.680Z,6.6
2017-08-22T10:28:30.123Z,6.6
2017-08-22T10:29:32.559Z,6.6
2017-08-22T10:30:35.319Z,6.6
2017-08-22T10:31:37.750Z,6.6
2017-08-22T10:32:40.527Z,6.7
2017-08-22T10:33:43.982Z,6.7
2017-08-22T10:34:47.092Z,6.6
2017-08-22T10:35:49.513Z,6.6
2017-08-22T10:36:51.949Z,6.6
2017-08-22T10:37:54.390Z,6.6
2017-08-22T10:38:56.826Z,6.6
2017-08-22T10:39:59.588Z,6.7
2017-08-22T10:41:02.365Z,6.6
2017-08-22T10:42:05.482Z,6.7
2017-08-22T10:43:07.906Z,6.6
2017-08-22T10:44:10.680Z,6.6
2017-08-22T10:45:13.455Z,6.6
2017-08-22T10:46:15.882Z,6.6
2017-08-22T10:47:18.323Z,6.6
2017-08-22T10:48:21.088Z,6.7
2017-08-22T10:49:24.226Z,6.7
2017-08-22T10:50:27.335Z,6.7
2017-08-22T10:51:29.777Z,6.7
2017-08-22T10:52:32.211Z,6.7
2017-08-22T10:53:35.322Z,6.7
2017-08-22T10:54:38.098Z,6.8
2017-08-22T10:55:40.522Z,6.8
2017-08-22T10:56:43.325Z,6.7
2017-08-22T10:57:45.755Z,6.7
2017-08-22T10:58:48.211Z,6.7
2017-08-22T10:59:51.993Z,6.7
2017-08-22T11:00:55.100Z,6.7
2017-08-22T11:01:57.905Z,6.7
2017-08-22T11:03:01.035Z,6.7
2017-08-22T11:04:04.472Z,6.7
2017-08-22T11:05:06.921Z,6.7
2017-08-22T11:06:09.405Z,6.7
2017-08-22T11:07:11.844Z,6.7
2017-08-22T11:08:14.286Z,6.7
2017-08-22T11:09:17.049Z,6.7
2017-08-22T11:10:19.493Z,6.7
2017-08-22T11:11:22.283Z,6.7
2017-08-22T11:12:24.728Z,6.7
2017-08-22T11:13:27.156Z,6.7
2017-08-22T11:14:29.932Z,6.7
2017-08-22T11:15:32.369Z,6.7
2017-08-22T11:16:35.143Z,6.7
2017-08-22T11:17:37.912Z,6.7
2017-08-22T11:18:40.348Z,6.7
2017-08-22T11:19:42.774Z,6.7
2017-08-22T11:20:46.258Z,6.7
2017-08-22T11:21:48.705Z,6.8
2017-08-22T11:22:51.476Z,6.8
2017-08-22T11:23:53.912Z,6.7
2017-08-22T11:24:56.346Z,6.7
2017-08-22T11:25:58.776Z,6.8
2017-08-22T11:27:01.208Z,6.8
2017-08-22T11:28:03.655Z,6.8
2017-08-22T11:29:06.421Z,6.7
2017-08-22T11:30:09.532Z,6.8
2017-08-22T11:31:12.645Z,6.8
2017-08-22T11:32:15.410Z,6.7
2017-08-22T11:33:17.850Z,6.8
2017-08-22T11:34:20.636Z,6.7
2017-08-22T11:35:23.734Z,6.8
2017-08-22T11:36:27.180Z,6.7
2017-08-22T11:37:30.456Z,6.7
2017-08-22T11:38:33.565Z,6.8
2017-08-22T11:39:35.986Z,6.7
2017-08-22T11:40:38.421Z,6.7
2017-08-22T11:41:40.871Z,6.7
2017-08-22T11:42:43.303Z,6.7
2017-08-22T11:43:45.738Z,6.7
2017-08-22T11:44:48.497Z,6.7
2017-08-22T11:45:51.272Z,6.7
2017-08-22T11:46:54.396Z,6.7
2017-08-22T11:47:56.814Z,6.7
2017-08-22T11:48:59.939Z,6.7
2017-08-22T11:50:02.370Z,6.7
2017-08-22T11:51:05.126Z,6.7
2017-08-22T11:52:08.240Z,6.7
2017-08-22T11:53:10.690Z,6.6
2017-08-22T11:54:13.105Z,6.6
2017-08-22T11:55:15.539Z,6.6
2017-08-22T11:56:17.974Z,6.7
2017-08-22T11:57:20.813Z,6.7
2017-08-22T11:58:23.579Z,6.7
2017-08-22T11:59:27.279Z,6.7
2017-08-22T12:00:29.709Z,6.7
2017-08-22T12:01:32.815Z,6.6
2017-08-22T12:02:35.932Z,6.6
2017-08-22T12:03:38.353Z,6.7
2017-08-22T12:04:41.460Z,6.7
2017-08-22T12:05:44.602Z,6.6
2017-08-22T12:06:47.047Z,6.6
2017-08-22T12:07:49.481Z,6.6
2017-08-22T12:08:52.273Z,6.6
2017-08-22T12:09:54.696Z,6.6
2017-08-22T12:10:57.479Z,6.6
2017-08-22T12:11:59.910Z,6.6
2017-08-22T12:13:03.351Z,6.6
2017-08-22T12:14:05.808Z,6.6
2017-08-22T12:15:08.243Z,6.6
2017-08-22T12:16:10.678Z,6.6
2017-08-22T12:17:13.431Z,6.6
2017-08-22T12:18:15.868Z,6.6
2017-08-22T12:19:18.659Z,6.7
2017-08-22T12:20:21.081Z,6.6
2017-08-22T12:21:24.874Z,6.6
2017-08-22T12:22:27.313Z,6.6
2017-08-22T12:23:29.736Z,6.7
2017-08-22T12:24:32.174Z,6.6
2017-08-22T12:25:34.791Z,6.6
2017-08-22T12:26:37.934Z,6.6
2017-08-22T12:27:40.681Z,6.6
2017-08-22T12:28:43.435Z,6.5
2017-08-22T12:29:46.214Z,6.6
2017-08-22T12:30:48.657Z,6.6
2017-08-22T12:31:51.142Z,6.6
2017-08-22T12:32:53.673Z,6.6
2017-08-22T12:33:56.791Z,6.6
2017-08-22T12:34:59.541Z,6.5
2017-08-22T12:36:02.319Z,6.5
2017-08-22T12:37:04.749Z,6.5
2017-08-22T12:38:07.352Z,6.6
2017-08-22T12:39:10.548Z,6.5
2017-08-22T12:40:12.964Z,6.5
2017-08-22T12:41:15.720Z,6.6
2017-08-22T12:42:18.825Z,6.4
2017-08-22T12:43:21.619Z,6.5
2017-08-22T12:44:24.375Z,6.5
2017-08-22T12:45:26.865Z,6.5
2017-08-22T12:46:29.652Z,6.5
2017-08-22T12:47:32.408Z,6.5
2017-08-22T12:48:34.840Z,6.5
2017-08-22T12:49:38.286Z,6.5
2017-08-22T12:50:40.709Z,6.5
2017-08-22T12:51:43.807Z,6.5
2017-08-22T12:52:46.228Z,6.5
2017-08-22T12:53:49.556Z,6.5
2017-08-22T12:54:51.983Z,6.5
2017-08-22T12:55:54.758Z,6.5
2017-08-22T12:56:57.523Z,6.5
2017-08-22T12:57:59.946Z,6.5
2017-08-22T12:59:03.404Z,6.5
2017-08-22T13:00:06.193Z,6.5
2017-08-22T13:01:08.620Z,6.5
2017-08-22T13:02:11.051Z,6.5
2017-08-22T13:03:13.831Z,6.5
2017-08-22T13:04:16.476Z,6.6
2017-08-22T13:05:18.919Z,6.5
2017-08-22T13:06:21.679Z,6.6
2017-08-22T13:07:24.437Z,6.6
2017-08-22T13:08:27.203Z,6.6
2017-08-22T13:09:30.296Z,6.6
2017-08-22T13:10:34.231Z,6.5
2017-08-22T13:11:37.396Z,6.6
2017-08-22T13:12:39.830Z,6.6
2017-08-22T13:13:42.595Z,6.5
2017-08-22T13:14:45.033Z,6.5
2017-08-22T13:15:47.800Z,6.5
2017-08-22T13:16:50.908Z,6.6
2017-08-22T13:17:54.373Z,6.5
2017-08-22T13:18:57.142Z,6.5
2017-08-22T13:19:59.934Z,6.5
2017-08-22T13:21:02.738Z,6.5
2017-08-22T13:22:05.161Z,6.5
2017-08-22T13:23:07.586Z,6.5
2017-08-22T13:24:11.049Z,6.5
2017-08-22T13:25:14.167Z,6.5
2017-08-22T13:26:17.274Z,6.5
2017-08-22T13:27:20.038Z,6.5
2017-08-22T13:28:22.464Z,6.5
2017-08-22T13:29:25.927Z,6.5
2017-08-22T13:30:28.688Z,6.5
2017-08-22T13:31:31.783Z,6.5
2017-08-22T13:32:34.925Z,6.5
2017-08-22T13:33:37.349Z,6.5
2017-08-22T13:34:40.101Z,6.5
2017-08-22T13:35:42.896Z,6.5
2017-08-22T13:36:45.323Z,6.5
2017-08-22T13:37:48.085Z,6.6
2017-08-22T13:38:50.510Z,6.5
2017-08-22T13:39:52.942Z,6.6
2017-08-22T13:40:55.367Z,6.6
2017-08-22T13:41:57.802Z,6.6
2017-08-22T13:43:00.264Z,6.5
2017-08-22T13:44:04.043Z,6.6
2017-08-22T13:45:06.879Z,6.5
2017-08-22T13:46:09.649Z,6.5
2017-08-22T13:47:12.762Z,6.6
2017-08-22T13:48:15.537Z,6.5
2017-08-22T13:49:18.317Z,6.6
2017-08-22T13:50:21.092Z,6.5
2017-08-22T13:51:23.529Z,6.6
2017-08-22T13:52:25.965Z,6.6
2017-08-22T13:53:28.383Z,6.5
2017-08-22T13:54:31.186Z,6.5
2017-08-22T13:55:33.613Z,6.5
2017-08-22T13:56:36.386Z,6.5
2017-08-22T13:57:39.152Z,6.6
2017-08-22T13:58:41.575Z,6.5
2017-08-22T13:59:44.349Z,6.6
2017-08-22T14:00:47.129Z,6.5
2017-08-22T14:01:49.905Z,6.5
2017-08-22T14:02:52.675Z,6.6
2017-08-22T14:03:55.119Z,6.6
2017-08-22T14:04:57.552Z,6.5
2017-08-22T14:06:00.665Z,6.5
2017-08-22T14:07:03.793Z,6.5
2017-08-22T14:08:06.203Z,6.5
2017-08-22T14:09:09.316Z,6.5
2017-08-22T14:10:12.087Z,6.5
2017-08-22T14:11:14.858Z,6.5
2017-08-22T14:12:17.318Z,6.5
2017-08-22T14:13:20.094Z,6.5
2017-08-22T14:14:22.517Z,6.5
2017-08-22T14:15:24.946Z,6.5
2017-08-22T14:16:27.701Z,6.5
2017-08-22T14:17:30.134Z,6.5
2017-08-22T14:18:32.571Z,6.6
2017-08-22T14:19:35.335Z,6.6
2017-08-22T14:20:38.113Z,6.6
2017-08-22T14:21:40.546Z,6.6
2017-08-22T14:22:43.316Z,6.6
2017-08-22T14:23:46.101Z,6.6
2017-08-22T14:24:48.892Z,6.7
2017-08-22T14:25:51.325Z,6.6